x

Newport, Or (nwpo3) Weather Station

8:00pm - Sun 22nd Oct 2017 All times are PDT. -7 hours from GMT.

  • Wind
    7mph, 8mph gusts
  • Air Temp 55°f
  • Sea Pressure 1031mb
  • Newport, Or
  • Newport, Or

More Historic Weather Station data

Upgrade to MSW Pro to gain access to the past 30 days of data for over 8000 Wavebouys and Weather Stations around the globe.

Join

Comparision Forecast

View Surf forecast
   
Sun 10/22 8:00pm 7 8 mph 1031mb 55f
7:00pm 9 11 mph 1030.3mb 56f
6:00pm 11 14 mph 1029.7mb 56f
5:00pm 13 14 mph 1029.2mb 56f
4:00pm 15 17 mph 1028.6mb 56f
3:00pm 13 17 mph 1028.2mb 56f
2:00pm 16 18 mph 1027.5mb 56f
1:00pm 13 16 mph 1027mb 55f
12:00pm 15 17 mph 1026.3mb 56f
11:00am 22 24 mph 1025.4mb 56f
10:00am 16 20 mph 1024.4mb 55f
9:00am 18 21 mph 1023.3mb 55f
8:00am 20 22 mph 1021.9mb 55f
7:00am 18 22 mph 1020.8mb 55f
6:00am 21 23 mph 1019.9mb 55f
5:00am 18 22 mph 1018.6mb 55f
4:00am 18 22 mph 1017.9mb 55f
3:00am 21 26 mph 1016.9mb 55f
2:00am 30 33 mph 1017mb 55f
1:00am 36 43 mph 1014.6mb 56f
12:00am 38 41 mph 1014.1mb 56f
Sat 10/21 11:00pm 39 46 mph 1013.5mb 56f
10:00pm 39 46 mph 1013.5mb 56f
9:00pm 36 46 mph 1013.2mb 56f
8:00pm 38 43 mph 1013.2mb 56f
7:00pm 34 40 mph 1013.4mb 56f
6:00pm 34 40 mph 1012.4mb 56f
5:00pm 34 41 mph 1012.6mb 56f
4:00pm 36 44 mph 1012.2mb 56f
3:00pm 33 40 mph 1012.1mb 55f
2:00pm 31 39 mph 1012.3mb 55f
1:00pm 33 40 mph 1011.2mb 54f
12:00pm 43 48 mph 1010.4mb 54f
11:00am 40 47 mph 1010.2mb 53f
10:00am 38 45 mph 1010.3mb 53f
9:00am 37 45 mph 1010.4mb 53f
8:00am 34 40 mph 1010.1mb 53f
7:00am 34 43 mph 1009.6mb 52f
6:00am 30 39 mph 1009.5mb 51f
5:00am 30 41 mph 1009.9mb 51f
4:00am 21 30 mph 1010.5mb 50f
3:00am 11 16 mph 1012.3mb 49f
2:00am 13 20 mph 1013.5mb 49f
1:00am 22 28 mph 1013.8mb 50f
12:00am 29 38 mph 1014.6mb 52f
Fri 10/20 11:00pm 22 28 mph 1014.9mb 53f
10:00pm 21 28 mph 1015.2mb 52f
9:00pm 15 18 mph 1015.7mb 50f
8:00pm 10 15 mph 1016mb 50f
7:00pm 15 21 mph 1016.1mb 51f
6:00pm 20 22 mph 1015.7mb 52f
5:00pm 13 15 mph 1015.8mb 51f
4:00pm 8 10 mph 1015.9mb 49f
3:00pm 15 17 mph 1014.6mb 55f
2:00pm 13 14 mph 1014.2mb 54f
1:00pm 17 21 mph 1014.2mb 51f
12:00pm 18 21 mph 1013.2mb 53f
11:00am 24 26 mph 1012.6mb 51f
10:00am 15 17 mph 1011.3mb 51f
9:00am 14 16 mph 1010.6mb 50f
7:00am 23 26 mph 1008.6mb 51f
6:00am 21 24 mph 1007.9mb 52f
5:00am 14 16 mph 1007.1mb 53f
4:00am 21 25 mph 1006.3mb 53f
3:00am 16 17 mph 1005.3mb 53f
2:00am 16 18 mph 1004.5mb 53f
1:00am 11 14 mph 1004.4mb 52f
12:00am 14 15 mph 1004mb 53f
Thu 10/19 11:00pm 16 17 mph 1003.9mb 52f
10:00pm 17 22 mph 1003.3mb 53f
9:00pm 23 25 mph 1003mb 52f
8:00pm 21 26 mph 1002.3mb 53f
7:00pm 25 30 mph 1002.3mb 54f
6:00pm 23 28 mph 1002.2mb 53f
5:00pm 25 28 mph 1002.6mb 53f
4:00pm 24 29 mph 1002.5mb 53f
3:00pm 22 26 mph 1002.5mb 53f
2:00pm 24 30 mph 1002.7mb 53f
1:00pm 22 25 mph 1003mb 53f
12:00pm 20 24 mph 1003.6mb 54f
11:00am 18 21 mph 1004.2mb 53f
10:00am 14 18 mph 1004.2mb 52f
9:00am 11 13 mph 1004.3mb 52f
8:00am 15 17 mph 1005mb 53f
7:00am 25 29 mph 1004.8mb 53f
6:00am 29 34 mph 1006mb 53f
5:00am 32 37 mph 1006mb 53f